Time;durP1;ratioP1;P1;durP2;ratioP2;P2;SDS_P1;SDS_P2;PMS_P1;PMS_P2;Temp;Humidity;BMP_temperature;BMP_pressure;BME280_temperature;BME280_humidity;BME280_pressure;Samples;Min_cycle;Max_cycle;Signal;HPM_P1;HPM_P2
2024/03/13 00:03:33;;;;;;;9.43;3.50;;;;;;;;;;10249091;28;20795;-79
2024/03/13 00:08:37;;;;;;;7.53;2.75;;;;;;;;;;10250486;28;20035;-79
2024/03/13 00:13:43;;;;;;;5.20;1.70;;;;;;;;;;10245273;28;20144;-77
2024/03/13 00:18:48;;;;;;;12.40;3.97;;;;;;;;;;10249102;28;21635;-78
2024/03/13 00:23:52;;;;;;;9.73;3.80;;;;;;;;;;10245507;28;20409;-77
2024/03/13 00:28:55;;;;;;;;;;;;;;;;;;10248302;28;20511;-77
2024/03/13 00:34:00;;;;;;;9.80;3.67;;;;;;;;;;10254976;28;20313;-77
2024/03/13 00:39:03;;;;;;;10.70;4.45;;;;;;;;;;10272388;28;20185;-78
2024/03/13 00:44:07;;;;;;;11.07;3.47;;;;;;;;;;10251440;28;20467;-77
2024/03/13 00:49:17;;;;;;;7.30;2.53;;;;;;;;;;10245727;28;20046;-78
2024/03/13 00:54:21;;;;;;;8.93;3.13;;;;;;;;;;10254492;28;20050;-76
2024/03/13 00:59:26;;;;;;;10.70;3.88;;;;;;;;;;10242072;28;20043;-76
2024/03/13 01:04:31;;;;;;;2.70;1.10;;;;;;;;;;10234405;28;20059;-77
2024/03/13 01:09:34;;;;;;;9.18;3.63;;;;;;;;;;10252333;28;20047;-78
2024/03/13 01:14:39;;;;;;;10.05;3.75;;;;;;;;;;10246858;28;20145;-78
2024/03/13 01:19:42;;;;;;;;;;;;;;;;;;10244778;28;20047;-78
2024/03/13 01:24:47;;;;;;;6.57;2.58;;;;;;;;;;10248654;28;20056;-78
2024/03/13 01:29:50;;;;;;;9.13;2.35;;;;;;;;;;10251234;28;20038;-78
2024/03/13 01:34:53;;;;;;;9.38;3.25;;;;;;;;;;10245594;28;20086;-78
2024/03/13 01:40:02;;;;;;;5.45;1.60;;;;;;;;;;10248771;28;20123;-77
2024/03/13 01:56:04;;;;;;;11.35;3.20;;;;;;;;;;10262488;28;20051;-77
2024/03/13 02:06:29;;;;;;;8.27;3.20;;;;;;;;;;10250522;28;20583;-76
2024/03/13 02:11:35;;;;;;;2.88;1.65;;;;;;;;;;10236113;28;20059;-76
2024/03/13 02:16:40;;;;;;;7.20;2.70;;;;;;;;;;10252716;28;20138;-77
2024/03/13 02:21:45;;;;;;;3.45;1.17;;;;;;;;;;10251507;28;20158;-77
2024/03/13 02:26:50;;;;;;;9.30;3.63;;;;;;;;;;10251337;28;20046;-76
2024/03/13 02:31:55;;;;;;;5.00;1.67;;;;;;;;;;10236417;28;20058;-76
2024/03/13 02:36:58;;;;;;;7.05;2.67;;;;;;;;;;10237536;28;20061;-77
2024/03/13 02:42:02;;;;;;;8.50;2.90;;;;;;;;;;10247141;28;20051;-75
2024/03/13 02:47:05;;;;;;;5.30;2.05;;;;;;;;;;10247736;28;20121;-77
2024/03/13 02:52:09;;;;;;;2.15;0.85;;;;;;;;;;10237689;28;20126;-77
2024/03/13 02:57:14;;;;;;;4.43;1.98;;;;;;;;;;10229655;28;20057;-78
2024/03/13 03:02:18;;;;;;;1.38;0.55;;;;;;;;;;10217076;28;20130;-79
2024/03/13 03:07:23;;;;;;;6.43;2.53;;;;;;;;;;10233741;28;20047;-80
2024/03/13 03:12:26;;;;;;;3.78;1.92;;;;;;;;;;10234582;28;20078;-80
2024/03/13 03:17:31;;;;;;;4.77;2.13;;;;;;;;;;10234611;28;20051;-79
2024/03/13 03:22:34;;;;;;;2.95;1.33;;;;;;;;;;10229083;28;20050;-80
2024/03/13 03:27:37;;;;;;;0.82;0.30;;;;;;;;;;10228372;28;20113;-76
2024/03/13 03:32:43;;;;;;;2.63;1.17;;;;;;;;;;10215136;28;20468;-77
2024/03/13 03:37:46;;;;;;;5.50;1.98;;;;;;;;;;10237230;28;20130;-78
2024/03/13 03:42:50;;;;;;;2.43;1.27;;;;;;;;;;10229579;28;20420;-78
2024/03/13 03:47:53;;;;;;;3.22;1.05;;;;;;;;;;10235022;28;20039;-78
2024/03/13 03:53:08;;;;;;;3.78;1.80;;;;;;;;;;10234669;28;20051;-79
2024/03/13 03:58:12;;;;;;;1.58;1.08;;;;;;;;;;10233275;28;20231;-79
2024/03/13 04:03:15;;;;;;;2.75;1.25;;;;;;;;;;10232397;28;20043;-76
2024/03/13 04:08:20;;;;;;;1.85;1.08;;;;;;;;;;10234073;28;20054;-78
2024/03/13 04:13:24;;;;;;;3.22;1.50;;;;;;;;;;10222682;28;20134;-77
2024/03/13 04:18:28;;;;;;;3.00;1.40;;;;;;;;;;10231947;28;20048;-78
2024/03/13 04:23:31;;;;;;;0.63;0.30;;;;;;;;;;10232274;28;20129;-78
2024/03/13 04:28:33;;;;;;;1.33;0.77;;;;;;;;;;10228383;28;20042;-78
2024/03/13 04:33:37;;;;;;;2.53;1.30;;;;;;;;;;10232648;28;20078;-79
2024/03/13 04:38:40;;;;;;;2.30;1.13;;;;;;;;;;10239603;28;20412;-79
2024/03/13 04:43:43;;;;;;;1.67;0.98;;;;;;;;;;10222968;28;20120;-80
2024/03/13 04:48:46;;;;;;;0.80;0.60;;;;;;;;;;10252166;28;20068;-80
2024/03/13 04:53:48;;;;;;;0.90;0.80;;;;;;;;;;10244944;28;20229;-78
2024/03/13 04:58:52;;;;;;;1.80;1.30;;;;;;;;;;10228060;28;20058;-78
2024/03/13 05:03:56;;;;;;;2.03;1.10;;;;;;;;;;10226583;28;20070;-78
2024/03/13 05:08:59;;;;;;;;;;;;;;;;;;10227068;28;20302;-78
2024/03/13 05:14:02;;;;;;;1.70;0.98;;;;;;;;;;10227746;28;19926;-78
2024/03/13 05:19:05;;;;;;;2.90;1.08;;;;;;;;;;10230733;28;20538;-79
2024/03/13 05:24:09;;;;;;;1.45;1.00;;;;;;;;;;10230517;28;20043;-79
2024/03/13 05:29:11;;;;;;;2.08;1.13;;;;;;;;;;10217048;28;20115;-79
2024/03/13 05:34:14;;;;;;;2.45;1.10;;;;;;;;;;10228532;28;20062;-76
2024/03/13 05:39:18;;;;;;;3.17;1.20;;;;;;;;;;10226947;28;20462;-76
2024/03/13 05:44:20;;;;;;;1.97;1.20;;;;;;;;;;10215610;28;20066;-76
2024/03/13 05:49:23;;;;;;;3.28;1.30;;;;;;;;;;10235058;28;20043;-76
2024/03/13 05:54:28;;;;;;;4.07;1.98;;;;;;;;;;10241356;28;20066;-77
2024/03/13 05:59:33;;;;;;;2.95;1.40;;;;;;;;;;10236880;28;20047;-76
2024/03/13 06:04:36;;;;;;;3.20;1.50;;;;;;;;;;10232050;28;20145;-76
2024/03/13 06:09:41;;;;;;;1.65;1.00;;;;;;;;;;10234607;28;20091;-76
2024/03/13 06:14:44;;;;;;;3.35;1.50;;;;;;;;;;10235985;28;20063;-75
2024/03/13 06:19:48;;;;;;;2.88;1.33;;;;;;;;;;10230972;28;20074;-76
2024/03/13 06:24:51;;;;;;;5.10;1.70;;;;;;;;;;10222699;28;20206;-77
2024/03/13 06:29:59;;;;;;;5.80;1.85;;;;;;;;;;10236144;28;20227;-75
2024/03/13 06:35:04;;;;;;;3.78;2.03;;;;;;;;;;10244829;28;20059;-78
2024/03/13 06:40:08;;;;;;;2.83;1.42;;;;;;;;;;10234455;28;20050;-77
2024/03/13 06:45:11;;;;;;;2.22;1.27;;;;;;;;;;10229527;28;20496;-76
2024/03/13 06:50:25;;;;;;;0.77;0.68;;;;;;;;;;10242359;28;20118;-77
2024/03/13 06:55:29;;;;;;;;;;;;;;;;;;10248062;28;20051;-77
2024/03/13 07:00:34;;;;;;;1.83;0.65;;;;;;;;;;10254630;28;19922;-78
2024/03/13 07:05:41;;;;;;;0.73;0.73;;;;;;;;;;10237935;28;20051;-78
2024/03/13 07:10:44;;;;;;;0.90;0.73;;;;;;;;;;10233980;28;20078;-77
2024/03/13 07:15:47;;;;;;;4.05;1.27;;;;;;;;;;10227852;28;20062;-77
2024/03/13 07:20:51;;;;;;;3.00;1.40;;;;;;;;;;10232602;28;20043;-78
2024/03/13 07:25:59;;;;;;;2.50;1.13;;;;;;;;;;10232170;28;20050;-77
2024/03/13 07:31:02;;;;;;;1.95;0.95;;;;;;;;;;10235768;28;20061;-77
2024/03/13 07:36:07;;;;;;;1.52;0.75;;;;;;;;;;10224578;28;20058;-77
2024/03/13 07:41:13;;;;;;;2.08;1.00;;;;;;;;;;10213694;28;20038;-78
2024/03/13 07:46:16;;;;;;;1.30;0.50;;;;;;;;;;10222502;28;20050;-78
2024/03/13 07:51:22;;;;;;;1.45;0.77;;;;;;;;;;10206648;28;20053;-77
2024/03/13 07:56:25;;;;;;;1.98;0.88;;;;;;;;;;10224755;28;21920;-77
2024/03/13 08:01:28;;;;;;;1.80;1.10;;;;;;;;;;10234096;28;20051;-78
2024/03/13 08:06:39;;;;;;;1.73;0.87;;;;;;;;;;10222254;28;20050;-78
2024/03/13 08:12:09;;;;;;;2.30;0.70;;;;;;;;;;10238653;28;20047;-79
2024/03/13 08:17:34;;;;;;;1.00;0.47;;;;;;;;;;10234200;28;20082;-78
2024/03/13 08:22:55;;;;;;;0.70;0.60;;;;;;;;;;10226236;28;20062;-78
2024/03/13 08:28:16;;;;;;;0.63;0.40;;;;;;;;;;10232280;28;20039;-77
2024/03/13 08:33:36;;;;;;;1.30;0.65;;;;;;;;;;10234790;28;20058;-77
2024/03/13 08:38:56;;;;;;;1.50;0.45;;;;;;;;;;10234276;28;22282;-77
2024/03/13 08:44:17;;;;;;;2.63;0.90;;;;;;;;;;10230998;28;20050;-78
2024/03/13 08:49:38;;;;;;;0.55;0.50;;;;;;;;;;10211625;28;20043;-78
2024/03/13 08:54:58;;;;;;;0.98;0.57;;;;;;;;;;10221146;28;20050;-78
2024/03/13 09:00:20;;;;;;;1.33;0.88;;;;;;;;;;10238834;28;20051;-77
2024/03/13 09:05:44;;;;;;;1.55;0.63;;;;;;;;;;10231884;28;20492;-77
2024/03/13 09:11:00;;;;;;;4.20;0.98;;;;;;;;;;10233452;28;20108;-78
2024/03/13 09:16:06;;;;;;;0.63;0.38;;;;;;;;;;10228135;28;20048;-78
2024/03/13 09:21:10;;;;;;;1.08;0.60;;;;;;;;;;10225628;28;20189;-78
2024/03/13 09:26:16;;;;;;;0.45;0.40;;;;;;;;;;10228324;28;20043;-77
2024/03/13 09:31:24;;;;;;;0.98;0.45;;;;;;;;;;10229263;28;20054;-78
2024/03/13 09:36:26;;;;;;;0.50;0.50;;;;;;;;;;10233018;28;20058;-77
2024/03/13 09:41:30;;;;;;;0.37;0.37;;;;;;;;;;10231603;28;20534;-78
2024/03/13 09:46:33;;;;;;;2.40;0.73;;;;;;;;;;10224704;28;20050;-77
2024/03/13 09:51:37;;;;;;;;;;;;;;;;;;10225582;28;20412;-78
2024/03/13 09:56:40;;;;;;;0.93;0.60;;;;;;;;;;10248143;28;19922;-78
2024/03/13 10:01:46;;;;;;;1.10;0.55;;;;;;;;;;10218052;28;20062;-78
2024/03/13 10:06:53;;;;;;;2.40;0.70;;;;;;;;;;10233565;28;20217;-78
2024/03/13 10:11:56;;;;;;;1.30;0.57;;;;;;;;;;10234385;28;20125;-77
2024/03/13 10:17:00;;;;;;;1.10;0.50;;;;;;;;;;10231724;28;20050;-77
2024/03/13 10:22:08;;;;;;;0.60;0.60;;;;;;;;;;10230057;28;20051;-77
2024/03/13 10:27:15;;;;;;;1.63;0.82;;;;;;;;;;10235565;28;20054;-78
2024/03/13 10:32:19;;;;;;;1.48;1.10;;;;;;;;;;10229559;28;20459;-77
2024/03/13 10:37:25;;;;;;;0.40;0.30;;;;;;;;;;10234576;28;20089;-79
2024/03/13 10:42:29;;;;;;;1.77;0.70;;;;;;;;;;10220787;28;20392;-78
2024/03/13 10:47:33;;;;;;;0.50;0.50;;;;;;;;;;10233693;28;20535;-79
2024/03/13 10:52:37;;;;;;;0.80;0.50;;;;;;;;;;10218613;28;20046;-79
2024/03/13 10:57:42;;;;;;;6.85;1.08;;;;;;;;;;10231178;28;20031;-78
2024/03/13 11:02:46;;;;;;;0.85;0.80;;;;;;;;;;10226069;28;20050;-77
2024/03/13 11:07:52;;;;;;;0.73;0.60;;;;;;;;;;10242928;28;20561;-78
2024/03/13 11:12:56;;;;;;;2.75;0.88;;;;;;;;;;10230495;28;20138;-81
2024/03/13 11:18:00;;;;;;;1.20;0.55;;;;;;;;;;10223832;28;20063;-78
2024/03/13 11:23:05;;;;;;;3.42;0.63;;;;;;;;;;10229372;28;21007;-77
2024/03/13 11:28:08;;;;;;;2.50;0.77;;;;;;;;;;10228307;28;20506;-77
2024/03/13 11:33:11;;;;;;;0.85;0.75;;;;;;;;;;10225570;28;20050;-78
2024/03/13 11:38:14;;;;;;;1.23;0.50;;;;;;;;;;10219402;28;20039;-77
2024/03/13 11:43:20;;;;;;;0.80;0.70;;;;;;;;;;10228819;28;20083;-77
2024/03/13 11:48:23;;;;;;;2.22;0.90;;;;;;;;;;10227230;28;20141;-77
2024/03/13 11:53:26;;;;;;;2.00;1.00;;;;;;;;;;10233912;28;20137;-77
2024/03/13 11:58:31;;;;;;;0.52;0.32;;;;;;;;;;10227682;28;20051;-77
2024/03/13 12:03:39;;;;;;;0.98;0.60;;;;;;;;;;10226541;28;20050;-78
2024/03/13 12:08:44;;;;;;;1.15;0.60;;;;;;;;;;10216949;28;20053;-77
2024/03/13 12:13:47;;;;;;;2.67;0.77;;;;;;;;;;10211177;28;20255;-78
2024/03/13 12:18:52;;;;;;;3.60;0.90;;;;;;;;;;10230004;28;20049;-77
2024/03/13 12:23:56;;;;;;;0.82;0.80;;;;;;;;;;10229527;28;20409;-76
2024/03/13 12:29:00;;;;;;;1.40;0.90;;;;;;;;;;10197540;28;20043;-77
2024/03/13 12:34:04;;;;;;;0.95;0.70;;;;;;;;;;10226865;28;20042;-76
2024/03/13 12:39:09;;;;;;;8.00;1.50;;;;;;;;;;10228469;28;21199;-76
2024/03/13 12:44:13;;;;;;;5.50;1.10;;;;;;;;;;10226172;28;20479;-77
2024/03/13 12:49:16;;;;;;;9.55;1.50;;;;;;;;;;10228245;28;20054;-78
2024/03/13 12:54:19;;;;;;;;;;;;;;;;;;10246446;28;20038;-77
2024/03/13 12:59:22;;;;;;;2.05;0.75;;;;;;;;;;10243592;28;20045;-76
2024/03/13 13:04:25;;;;;;;1.88;1.20;;;;;;;;;;10231771;28;20374;-77
2024/03/13 13:09:29;;;;;;;3.78;1.50;;;;;;;;;;10242018;28;20053;-76
2024/03/13 13:14:32;;;;;;;1.55;0.80;;;;;;;;;;10234306;28;20043;-76
2024/03/13 13:19:38;;;;;;;4.50;1.10;;;;;;;;;;10235712;28;20058;-76
2024/03/13 13:24:41;;;;;;;2.50;1.10;;;;;;;;;;10232302;28;20046;-77
2024/03/13 13:29:45;;;;;;;1.27;0.90;;;;;;;;;;10229878;28;20046;-76
2024/03/13 13:34:53;;;;;;;0.82;0.82;;;;;;;;;;10234181;28;20044;-76
2024/03/13 13:39:56;;;;;;;1.67;1.02;;;;;;;;;;10230546;28;20047;-77
2024/03/13 13:44:59;;;;;;;5.78;1.50;;;;;;;;;;10236445;28;20062;-76
2024/03/13 13:50:03;;;;;;;1.35;1.15;;;;;;;;;;10233667;28;20053;-77
2024/03/13 13:55:06;;;;;;;5.80;1.40;;;;;;;;;;10220354;28;20182;-76
2024/03/13 14:00:12;;;;;;;1.95;1.30;;;;;;;;;;10234489;28;20059;-77
2024/03/13 14:05:16;;;;;;;2.78;0.90;;;;;;;;;;10230202;28;20121;-76
2024/03/13 14:10:22;;;;;;;2.38;1.20;;;;;;;;;;10218172;28;20058;-75
2024/03/13 14:15:37;;;;;;;1.92;1.30;;;;;;;;;;10229358;28;22500;-78
2024/03/13 14:20:44;;;;;;;0.93;0.60;;;;;;;;;;10239947;28;20226;-78
2024/03/13 14:25:47;;;;;;;1.67;1.45;;;;;;;;;;10219089;28;20050;-77
2024/03/13 14:30:51;;;;;;;1.67;0.82;;;;;;;;;;10226589;28;20839;-76
2024/03/13 14:35:54;;;;;;;4.50;1.20;;;;;;;;;;10229225;28;20051;-76
2024/03/13 14:40:58;;;;;;;1.70;1.03;;;;;;;;;;10220558;28;20071;-77
2024/03/13 14:46:01;;;;;;;;;;;;;;;;;;10231938;28;20720;-76
2024/03/13 14:51:05;;;;;;;1.93;1.20;;;;;;;;;;10252909;28;19929;-77
2024/03/13 14:56:08;;;;;;;1.13;0.75;;;;;;;;;;10229530;28;20043;-76
2024/03/13 15:01:13;;;;;;;1.40;0.90;;;;;;;;;;10232021;28;20612;-77
2024/03/13 15:06:16;;;;;;;1.27;0.43;;;;;;;;;;10228048;28;20043;-77
2024/03/13 15:11:23;;;;;;;1.90;1.25;;;;;;;;;;10226955;28;20524;-76
2024/03/13 15:16:26;;;;;;;1.38;1.10;;;;;;;;;;10234587;28;20139;-76
2024/03/13 15:21:30;;;;;;;1.42;1.17;;;;;;;;;;10228978;28;20614;-76
2024/03/13 15:26:33;;;;;;;2.17;1.27;;;;;;;;;;10228542;28;20199;-77
2024/03/13 15:31:40;;;;;;;2.05;1.63;;;;;;;;;;10227499;28;20495;-76
2024/03/13 15:36:44;;;;;;;1.75;0.98;;;;;;;;;;10212050;28;20042;-76
2024/03/13 15:41:49;;;;;;;1.73;1.23;;;;;;;;;;10226671;28;20115;-76
2024/03/13 15:46:52;;;;;;;0.88;0.82;;;;;;;;;;10226601;28;20055;-76
2024/03/13 15:51:56;;;;;;;2.70;1.60;;;;;;;;;;10224362;28;20425;-77
2024/03/13 15:56:59;;;;;;;1.33;1.05;;;;;;;;;;10226515;28;20523;-78
2024/03/13 16:02:04;;;;;;;4.20;1.43;;;;;;;;;;10226236;28;20053;-75
2024/03/13 16:07:13;;;;;;;2.72;0.90;;;;;;;;;;10224016;28;20074;-76
2024/03/13 16:12:19;;;;;;;2.83;1.20;;;;;;;;;;10226718;28;20047;-76
2024/03/13 16:17:23;;;;;;;1.17;0.95;;;;;;;;;;10242233;28;20047;-76
2024/03/13 16:22:31;;;;;;;1.45;1.10;;;;;;;;;;10226489;28;20070;-76
2024/03/13 16:27:37;;;;;;;2.22;1.45;;;;;;;;;;10224957;28;20102;-77
2024/03/13 16:32:40;;;;;;;0.70;0.52;;;;;;;;;;10230586;28;20180;-75
2024/03/13 16:37:44;;;;;;;3.05;1.05;;;;;;;;;;10220670;28;20133;-76
2024/03/13 16:42:48;;;;;;;3.28;1.60;;;;;;;;;;10234338;28;20126;-77
2024/03/13 16:47:51;;;;;;;2.03;1.30;;;;;;;;;;10235078;28;20058;-77
2024/03/13 16:52:56;;;;;;;4.00;1.83;;;;;;;;;;10235304;28;20046;-77
2024/03/13 16:58:00;;;;;;;3.17;0.95;;;;;;;;;;10235914;28;20038;-77
2024/03/13 17:03:04;;;;;;;1.88;0.80;;;;;;;;;;10227754;28;20166;-76
2024/03/13 17:08:08;;;;;;;1.97;1.60;;;;;;;;;;10230487;28;20050;-77
2024/03/13 17:13:10;;;;;;;1.80;0.98;;;;;;;;;;10226001;28;20070;-77
2024/03/13 17:18:15;;;;;;;4.75;1.90;;;;;;;;;;10231780;28;20067;-76
2024/03/13 17:23:21;;;;;;;3.78;1.20;;;;;;;;;;10231008;28;20047;-77
2024/03/13 17:28:25;;;;;;;4.38;2.10;;;;;;;;;;10226280;28;20087;-77
2024/03/13 17:33:28;;;;;;;5.63;1.90;;;;;;;;;;10232108;28;20043;-77
2024/03/13 17:38:33;;;;;;;4.53;2.00;;;;;;;;;;10219936;28;20059;-76
2024/03/13 17:43:36;;;;;;;6.45;2.13;;;;;;;;;;10231887;28;20055;-76
2024/03/13 17:48:40;;;;;;;5.10;2.22;;;;;;;;;;10238870;28;20078;-76
2024/03/13 17:53:45;;;;;;;1.33;1.23;;;;;;;;;;10239037;28;20047;-76
2024/03/13 17:58:49;;;;;;;2.45;1.27;;;;;;;;;;10240059;28;20083;-75
2024/03/13 18:03:52;;;;;;;6.13;1.77;;;;;;;;;;10236308;28;20043;-75
2024/03/13 18:08:56;;;;;;;5.25;1.85;;;;;;;;;;10236974;28;20554;-76
2024/03/13 18:14:00;;;;;;;4.63;2.03;;;;;;;;;;10238854;28;20403;-76
2024/03/13 18:19:03;;;;;;;7.22;2.70;;;;;;;;;;10219242;28;20050;-76
2024/03/13 18:24:06;;;;;;;4.22;2.03;;;;;;;;;;10232356;28;20457;-76
2024/03/13 18:29:09;;;;;;;6.45;2.85;;;;;;;;;;10218486;28;20496;-76
2024/03/13 18:34:15;;;;;;;5.23;2.40;;;;;;;;;;10244356;28;20146;-77
2024/03/13 18:39:18;;;;;;;4.82;1.55;;;;;;;;;;10237258;28;20595;-77
2024/03/13 18:44:24;;;;;;;5.63;2.72;;;;;;;;;;10233958;28;20047;-77
2024/03/13 18:49:28;;;;;;;3.50;1.70;;;;;;;;;;10223612;28;20043;-76
2024/03/13 18:54:31;;;;;;;;;;;;;;;;;;10238957;28;20042;-76
2024/03/13 18:59:34;;;;;;;5.40;2.15;;;;;;;;;;10253879;28;21043;-76
2024/03/13 19:04:38;;;;;;;2.38;1.20;;;;;;;;;;10238302;28;20101;-77
2024/03/13 19:09:41;;;;;;;3.10;1.88;;;;;;;;;;10236740;28;20046;-75
2024/03/13 19:14:45;;;;;;;3.43;1.37;;;;;;;;;;10240233;28;20039;-76
2024/03/13 19:19:50;;;;;;;5.55;2.17;;;;;;;;;;10224263;28;20134;-79
2024/03/13 19:24:54;;;;;;;3.88;2.00;;;;;;;;;;10237082;28;20471;-77
2024/03/13 19:29:59;;;;;;;4.88;2.60;;;;;;;;;;10242565;28;20051;-78
2024/03/13 19:35:04;;;;;;;2.60;1.20;;;;;;;;;;10242143;28;20042;-78
2024/03/13 19:40:10;;;;;;;5.15;2.22;;;;;;;;;;10235870;28;20050;-76
2024/03/13 19:45:14;;;;;;;2.20;1.33;;;;;;;;;;10235565;28;20051;-75
2024/03/13 19:50:17;;;;;;;2.47;1.47;;;;;;;;;;10237438;28;20051;-75
2024/03/13 19:55:21;;;;;;;2.45;1.42;;;;;;;;;;10239630;28;20330;-76
2024/03/13 20:00:25;;;;;;;4.23;1.73;;;;;;;;;;10233197;28;20068;-76
2024/03/13 20:05:30;;;;;;;4.28;2.10;;;;;;;;;;10229498;28;20496;-76
2024/03/13 20:10:33;;;;;;;5.20;2.75;;;;;;;;;;10238973;28;20031;-77
2024/03/13 20:15:52;;;;;;;1.98;1.15;;;;;;;;;;10234308;28;20634;-76
2024/03/13 20:26:48;;;;;;;4.40;2.10;;;;;;;;;;10225647;28;20272;-77
2024/03/13 20:31:52;;;;;;;2.23;1.20;;;;;;;;;;10239576;28;20054;-78
2024/03/13 20:37:01;;;;;;;4.53;2.10;;;;;;;;;;10238434;28;20101;-77
2024/03/13 20:42:12;;;;;;;3.72;1.90;;;;;;;;;;10231262;28;20114;-77
2024/03/13 20:47:33;;;;;;;2.93;1.50;;;;;;;;;;10242153;28;20145;-77
2024/03/13 20:52:43;;;;;;;4.68;2.05;;;;;;;;;;10281358;28;20463;-77
2024/03/13 20:57:46;;;;;;;0.82;0.82;;;;;;;;;;10244696;28;20062;-77
2024/03/13 21:02:51;;;;;;;3.05;1.60;;;;;;;;;;10233910;28;20042;-74
2024/03/13 21:07:54;;;;;;;3.72;1.83;;;;;;;;;;10230669;28;20058;-78
2024/03/13 21:12:58;;;;;;;;;;;;;;;;;;10228662;28;20047;-75
2024/03/13 21:18:04;;;;;;;2.08;1.27;;;;;;;;;;10253790;28;19926;-76
2024/03/13 21:23:10;;;;;;;1.92;0.93;;;;;;;;;;10245299;28;20603;-76
2024/03/13 21:28:14;;;;;;;2.67;1.70;;;;;;;;;;10249664;28;20086;-78
2024/03/13 21:33:19;;;;;;;1.17;0.90;;;;;;;;;;10225317;28;20035;-75
2024/03/13 21:38:28;;;;;;;2.67;1.10;;;;;;;;;;10238633;28;20317;-75
2024/03/13 21:43:35;;;;;;;3.40;1.77;;;;;;;;;;10238969;28;20166;-77
2024/03/13 21:48:40;;;;;;;2.72;1.60;;;;;;;;;;10227926;28;20050;-75
2024/03/13 21:53:45;;;;;;;2.95;1.40;;;;;;;;;;10237058;28;20050;-76
2024/03/13 21:58:48;;;;;;;3.10;1.73;;;;;;;;;;10236560;28;20051;-76
2024/03/13 22:03:52;;;;;;;1.50;0.80;;;;;;;;;;10235147;28;20043;-78
2024/03/13 22:08:55;;;;;;;3.00;1.73;;;;;;;;;;10243832;28;20129;-77
2024/03/13 22:13:59;;;;;;;2.33;1.63;;;;;;;;;;10242046;28;20043;-78
2024/03/13 22:19:03;;;;;;;3.47;1.60;;;;;;;;;;10227813;28;20054;-78
2024/03/13 22:24:08;;;;;;;2.55;1.50;;;;;;;;;;10223184;28;20070;-77
2024/03/13 22:29:11;;;;;;;2.67;1.58;;;;;;;;;;10241378;28;20054;-76
2024/03/13 22:34:14;;;;;;;5.47;2.00;;;;;;;;;;10232330;28;20058;-77
2024/03/13 22:39:19;;;;;;;1.10;0.77;;;;;;;;;;10238932;28;20455;-77
2024/03/13 22:44:24;;;;;;;5.88;2.30;;;;;;;;;;10233658;28;20039;-77
2024/03/13 22:49:30;;;;;;;4.30;2.15;;;;;;;;;;10237246;28;20051;-77
2024/03/13 22:54:36;;;;;;;3.53;1.90;;;;;;;;;;10238666;28;20500;-77
2024/03/13 22:59:41;;;;;;;3.72;1.50;;;;;;;;;;10226181;28;20067;-77
2024/03/13 23:04:45;;;;;;;4.97;2.38;;;;;;;;;;10232062;28;20042;-77
2024/03/13 23:09:50;;;;;;;2.67;1.53;;;;;;;;;;10225035;28;20053;-78
2024/03/13 23:14:55;;;;;;;3.78;2.30;;;;;;;;;;10237372;28;20133;-78
2024/03/13 23:20:00;;;;;;;4.30;2.33;;;;;;;;;;10239166;28;20139;-77
2024/03/13 23:25:05;;;;;;;5.45;2.40;;;;;;;;;;10236455;28;20141;-77
2024/03/13 23:30:08;;;;;;;5.80;2.47;;;;;;;;;;10249582;28;20039;-78
2024/03/13 23:35:11;;;;;;;3.40;1.98;;;;;;;;;;10241843;28;20055;-76
2024/03/13 23:40:19;;;;;;;2.65;1.80;;;;;;;;;;10234690;28;20054;-78
2024/03/13 23:45:25;;;;;;;3.30;1.70;;;;;;;;;;10232780;28;20043;-78
2024/03/13 23:50:30;;;;;;;2.72;1.58;;;;;;;;;;10232438;28;20093;-77
2024/03/13 23:55:34;;;;;;;4.72;2.03;;;;;;;;;;10231361;28;20046;-77
